Time;durP1;ratioP1;P1;durP2;ratioP2;P2;SDS_P1;SDS_P2;PMS_P1;PMS_P2;Temp;Humidity;BMP_temperature;BMP_pressure;BME280_temperature;BME280_humidity;BME280_pressure;Samples;Min_cycle;Max_cycle;Signal;HPM_P1;HPM_P2
2022/06/04 00:00:57;;;;;;;9.35;6.30;;;;;;;;;;5055423;28;20234;-80
2022/06/04 00:03:26;;;;;;;9.48;7.15;;;;;;;;;;5055983;28;20206;-80
2022/06/04 00:05:54;;;;;;;9.77;6.80;;;;;;;;;;5055353;28;20261;-79
2022/06/04 00:08:21;;;;;;;7.78;7.07;;;;;;;;;;5055836;28;20213;-80
2022/06/04 00:16:20;;;;;;;8.07;6.95;;;;;;;;;;5055244;28;20236;-79
2022/06/04 00:18:47;;;;;;;12.93;6.97;;;;;;;;;;5055241;28;20210;-80
2022/06/04 00:21:15;;;;;;;8.68;7.05;;;;;;;;;;5055644;28;20240;-80
2022/06/04 00:23:43;;;;;;;10.45;7.22;;;;;;;;;;5055454;28;20221;-80
2022/06/04 00:26:13;;;;;;;10.30;7.13;;;;;;;;;;5055529;28;20608;-79
2022/06/04 00:28:40;;;;;;;10.93;7.05;;;;;;;;;;5056104;28;20190;-80
2022/06/04 00:31:07;;;;;;;9.38;7.15;;;;;;;;;;5055996;28;20252;-80
2022/06/04 00:33:35;;;;;;;9.63;6.68;;;;;;;;;;5055408;28;20202;-80
2022/06/04 00:36:02;;;;;;;9.27;7.05;;;;;;;;;;5054741;28;20247;-80
2022/06/04 00:38:30;;;;;;;9.18;7.20;;;;;;;;;;5055087;28;20210;-80
2022/06/04 00:41:02;;;;;;;7.25;6.50;;;;;;;;;;5055200;28;20245;-79
2022/06/04 00:43:32;;;;;;;7.32;6.72;;;;;;;;;;5054612;28;20650;-80
2022/06/04 00:46:18;;;;;;;10.52;6.80;;;;;;;;;;5054529;28;20240;-80
2022/06/04 00:48:45;;;;;;;7.97;7.18;;;;;;;;;;5054705;28;20214;-80
2022/06/04 00:51:13;;;;;;;7.43;6.72;;;;;;;;;;5054026;28;20248;-80
2022/06/04 00:53:41;;;;;;;7.85;7.05;;;;;;;;;;5054217;28;20608;-80
2022/06/04 00:56:11;;;;;;;8.57;6.55;;;;;;;;;;5053949;28;20234;-80
2022/06/04 00:58:46;;;;;;;7.78;7.07;;;;;;;;;;5055232;28;20210;-80
2022/06/04 01:01:18;;;;;;;9.38;7.47;;;;;;;;;;5033247;28;20233;-81
2022/06/04 01:03:52;;;;;;;8.35;7.57;;;;;;;;;;5034470;28;20195;-81
2022/06/04 01:06:34;;;;;;;8.30;7.60;;;;;;;;;;5032096;28;20612;-81
2022/06/04 01:09:12;;;;;;;10.05;8.38;;;;;;;;;;5036009;28;20244;-81
2022/06/04 01:14:35;;;;;;;7.90;7.10;;;;;;;;;;5033008;28;20194;-81
2022/06/04 01:17:08;;;;;;;8.00;7.30;;;;;;;;;;5034603;28;20234;-81
2022/06/04 01:19:46;;;;;;;9.27;8.00;;;;;;;;;;5034132;28;20190;-81
2022/06/04 01:22:24;;;;;;;9.27;7.78;;;;;;;;;;5034234;28;20269;-81
2022/06/04 01:24:59;;;;;;;9.27;8.32;;;;;;;;;;5033775;28;20234;-81
2022/06/04 01:27:30;;;;;;;14.98;9.60;;;;;;;;;;5053841;28;20563;-81
2022/06/04 01:30:01;;;;;;;10.77;9.55;;;;;;;;;;5053058;28;20678;-81
2022/06/04 01:32:30;;;;;;;10.33;9.43;;;;;;;;;;5053444;28;20702;-81
2022/06/04 01:35:09;;;;;;;10.05;8.43;;;;;;;;;;5053285;28;20230;-81
2022/06/04 01:37:39;;;;;;;10.43;8.93;;;;;;;;;;5055147;28;20577;-80
2022/06/04 01:42:55;;;;;;;10.40;9.40;;;;;;;;;;5054072;28;20225;-80
2022/06/04 01:45:24;;;;;;;10.70;9.60;;;;;;;;;;5053793;28;20237;-81
2022/06/04 01:47:52;;;;;;;11.70;9.75;;;;;;;;;;5055252;28;20206;-81
2022/06/04 01:50:21;;;;;;;10.97;9.87;;;;;;;;;;5057058;28;20241;-81
2022/06/04 01:52:50;;;;;;;10.63;9.60;;;;;;;;;;5058172;28;20240;-81
2022/06/04 01:55:20;;;;;;;10.82;9.73;;;;;;;;;;5057668;28;20236;-81
2022/06/04 01:57:50;;;;;;;10.33;9.33;;;;;;;;;;5059145;28;20210;-80
2022/06/04 02:00:21;;;;;;;10.77;9.00;;;;;;;;;;5058263;28;20740;-80
2022/06/04 02:02:50;;;;;;;12.17;9.47;;;;;;;;;;5058972;28;20233;-81
2022/06/04 02:05:21;;;;;;;9.90;8.77;;;;;;;;;;5057875;28;20237;-81
2022/06/04 02:07:49;;;;;;;9.02;8.13;;;;;;;;;;5058651;28;20202;-81
2022/06/04 02:10:20;;;;;;;10.55;8.65;;;;;;;;;;5058344;28;20245;-81
2022/06/04 02:12:47;;;;;;;8.77;7.87;;;;;;;;;;5058499;28;20232;-81
2022/06/04 02:15:17;;;;;;;9.03;8.10;;;;;;;;;;5057557;28;20276;-81
2022/06/04 02:17:47;;;;;;;9.17;8.37;;;;;;;;;;5058467;28;20213;-81
2022/06/04 02:20:14;;;;;;;8.17;7.53;;;;;;;;;;5057755;28;20238;-81
2022/06/04 02:22:42;;;;;;;11.27;9.27;;;;;;;;;;5057845;28;20242;-81
2022/06/04 02:25:10;;;;;;;9.37;8.20;;;;;;;;;;5057267;28;20249;-81
2022/06/04 02:27:37;;;;;;;8.60;7.63;;;;;;;;;;5057977;28;20210;-81
2022/06/04 02:30:05;;;;;;;12.53;8.03;;;;;;;;;;5057597;28;20237;-81
2022/06/04 02:32:35;;;;;;;8.53;7.70;;;;;;;;;;5058891;28;20233;-81
2022/06/04 02:35:06;;;;;;;9.70;7.60;;;;;;;;;;5057434;28;20233;-81
2022/06/04 02:37:36;;;;;;;8.27;7.47;;;;;;;;;;5057367;28;20209;-81
2022/06/04 02:40:06;;;;;;;8.87;7.87;;;;;;;;;;5057332;28;20241;-81
2022/06/04 02:42:36;;;;;;;11.10;7.30;;;;;;;;;;5057558;28;20230;-81
2022/06/04 02:45:06;;;;;;;9.07;7.30;;;;;;;;;;5057370;28;20233;-81
2022/06/04 02:47:37;;;;;;;10.27;8.37;;;;;;;;;;5057917;28;20579;-80
2022/06/04 02:50:09;;;;;;;8.27;7.43;;;;;;;;;;5056902;28;21013;-81
2022/06/04 02:52:37;;;;;;;8.03;7.00;;;;;;;;;;5057389;28;20221;-81
2022/06/04 02:55:07;;;;;;;11.57;7.20;;;;;;;;;;5056594;28;20237;-81
2022/06/04 02:57:34;;;;;;;10.57;7.23;;;;;;;;;;5057643;28;20707;-81
2022/06/04 03:00:03;;;;;;;8.13;7.33;;;;;;;;;;5056538;28;20238;-81
2022/06/04 03:02:32;;;;;;;8.40;7.50;;;;;;;;;;5057530;28;20230;-81
2022/06/04 03:05:06;;;;;;;9.77;7.23;;;;;;;;;;5056591;28;20237;-81
2022/06/04 03:07:34;;;;;;;8.03;7.23;;;;;;;;;;5057764;28;20217;-81
2022/06/04 03:10:08;;;;;;;13.87;8.30;;;;;;;;;;5056876;28;20239;-81
2022/06/04 03:12:35;;;;;;;8.70;7.80;;;;;;;;;;5057106;28;20284;-81
2022/06/04 03:15:03;;;;;;;9.10;8.20;;;;;;;;;;5066457;28;20234;-81
2022/06/04 03:17:31;;;;;;;9.13;8.33;;;;;;;;;;5057054;28;20198;-81
2022/06/04 03:19:58;;;;;;;9.87;8.90;;;;;;;;;;5053929;28;20234;-81
2022/06/04 03:22:25;;;;;;;9.33;7.13;;;;;;;;;;5054235;28;20714;-81
2022/06/04 03:24:53;;;;;;;8.87;7.17;;;;;;;;;;5053749;28;20234;-81
2022/06/04 03:27:20;;;;;;;9.17;6.70;;;;;;;;;;5054635;28;20213;-81
2022/06/04 03:29:47;;;;;;;8.13;7.30;;;;;;;;;;5054018;28;20213;-81
2022/06/04 03:32:14;;;;;;;7.43;6.73;;;;;;;;;;5054627;28;20587;-81
2022/06/04 03:34:41;;;;;;;8.10;7.40;;;;;;;;;;5053865;28;20558;-81
2022/06/04 03:37:09;;;;;;;9.33;8.43;;;;;;;;;;5054547;28;20206;-81
2022/06/04 03:39:36;;;;;;;8.33;7.53;;;;;;;;;;5054513;28;20213;-81
2022/06/04 03:42:05;;;;;;;8.90;8.00;;;;;;;;;;5055084;28;20226;-81
2022/06/04 03:44:33;;;;;;;10.57;9.57;;;;;;;;;;5063392;28;20202;-81
2022/06/04 03:47:00;;;;;;;11.77;9.70;;;;;;;;;;5054076;28;20205;-81
2022/06/04 03:49:27;;;;;;;12.13;9.97;;;;;;;;;;5054226;28;20209;-81
2022/06/04 03:51:54;;;;;;;13.57;12.17;;;;;;;;;;5053786;28;20233;-81
2022/06/04 03:54:52;;;;;;;15.40;11.83;;;;;;;;;;5054148;28;20202;-82
2022/06/04 03:59:59;;;;;;;13.87;12.47;;;;;;;;;;5039351;28;20283;-81
2022/06/04 04:02:26;;;;;;;15.03;13.10;;;;;;;;;;5056333;28;20230;-81
2022/06/04 04:04:53;;;;;;;16.90;12.50;;;;;;;;;;5056541;28;20305;-81
2022/06/04 04:07:20;;;;;;;13.30;11.87;;;;;;;;;;5057540;28;20218;-81
2022/06/04 04:09:48;;;;;;;18.10;11.87;;;;;;;;;;5056491;28;20213;-81
2022/06/04 04:12:16;;;;;;;14.27;12.77;;;;;;;;;;5056414;28;20226;-81
2022/06/04 04:14:43;;;;;;;15.03;12.40;;;;;;;;;;5056475;28;20209;-81
2022/06/04 04:17:10;;;;;;;13.53;12.10;;;;;;;;;;5058012;28;20624;-81
2022/06/04 04:19:37;;;;;;;15.63;12.10;;;;;;;;;;5056370;28;20199;-81
2022/06/04 04:22:05;;;;;;;13.77;12.33;;;;;;;;;;5078110;22;20240;-84
2022/06/04 04:24:32;;;;;;;14.13;10.97;;;;;;;;;;5054486;28;20198;-81
2022/06/04 04:26:59;;;;;;;13.23;11.83;;;;;;;;;;5054755;28;20559;-81
2022/06/04 04:29:27;;;;;;;15.30;12.53;;;;;;;;;;5055231;28;20228;-81
2022/06/04 04:31:55;;;;;;;13.20;11.07;;;;;;;;;;5054518;28;20255;-82
2022/06/04 04:34:22;;;;;;;16.20;12.97;;;;;;;;;;5053832;28;20206;-80
2022/06/04 04:36:49;;;;;;;14.03;12.57;;;;;;;;;;5053809;28;20234;-81
2022/06/04 04:39:16;;;;;;;14.93;12.53;;;;;;;;;;5054977;28;20206;-81
2022/06/04 04:41:43;;;;;;;14.37;12.97;;;;;;;;;;5054174;28;20709;-81
2022/06/04 04:44:10;;;;;;;14.13;12.70;;;;;;;;;;5054032;28;20553;-81
2022/06/04 04:46:39;;;;;;;14.80;12.73;;;;;;;;;;5053986;28;20242;-81
2022/06/04 04:49:06;;;;;;;15.37;12.43;;;;;;;;;;5054250;28;20214;-81
2022/06/04 04:51:34;;;;;;;14.20;12.40;;;;;;;;;;5053458;28;20238;-81
2022/06/04 04:54:02;;;;;;;14.83;12.83;;;;;;;;;;5054413;28;20229;-82
2022/06/04 04:56:29;;;;;;;16.13;14.13;;;;;;;;;;5054460;28;20235;-82
2022/06/04 04:58:56;;;;;;;16.27;14.67;;;;;;;;;;5053112;28;20210;-79
2022/06/04 05:01:24;;;;;;;19.73;15.83;;;;;;;;;;5051462;28;20233;-78
2022/06/04 05:03:53;;;;;;;20.50;17.30;;;;;;;;;;5056099;28;20235;-81
2022/06/04 05:06:21;;;;;;;18.67;15.73;;;;;;;;;;5059774;28;20238;-82
2022/06/04 05:08:52;;;;;;;21.07;17.13;;;;;;;;;;5061463;28;20233;-81
2022/06/04 05:11:21;;;;;;;18.67;16.67;;;;;;;;;;5060770;28;20229;-82
2022/06/04 05:13:49;;;;;;;18.57;16.57;;;;;;;;;;5061468;28;20206;-82
2022/06/04 05:16:16;;;;;;;20.33;16.97;;;;;;;;;;5060164;28;20731;-81
2022/06/04 05:18:43;;;;;;;17.37;15.57;;;;;;;;;;5059745;28;20236;-81
2022/06/04 05:21:13;;;;;;;17.10;15.20;;;;;;;;;;5056913;28;20249;-81
2022/06/04 05:23:40;;;;;;;17.47;15.67;;;;;;;;;;5059825;28;20234;-81
2022/06/04 05:26:07;;;;;;;19.13;16.23;;;;;;;;;;5057945;28;20233;-81
2022/06/04 05:28:34;;;;;;;17.77;15.73;;;;;;;;;;5059460;28;20217;-81
2022/06/04 05:31:02;;;;;;;16.03;14.47;;;;;;;;;;5058709;28;20344;-82
2022/06/04 05:33:29;;;;;;;17.17;15.37;;;;;;;;;;5059189;28;20226;-81
2022/06/04 05:35:56;;;;;;;17.33;15.37;;;;;;;;;;5058094;28;20725;-81
2022/06/04 05:38:25;;;;;;;15.83;14.03;;;;;;;;;;5059172;28;20210;-81
2022/06/04 05:40:59;;;;;;;14.53;13.00;;;;;;;;;;5059528;28;20234;-82
2022/06/04 05:43:26;;;;;;;13.60;12.40;;;;;;;;;;5057573;28;20237;-82
2022/06/04 05:45:57;;;;;;;13.33;11.93;;;;;;;;;;5056056;28;20237;-82
2022/06/04 05:48:24;;;;;;;10.60;9.60;;;;;;;;;;5060171;28;20678;-81
2022/06/04 05:50:52;;;;;;;10.30;9.35;;;;;;;;;;5059662;28;20291;-81
2022/06/04 05:53:19;;;;;;;9.55;8.65;;;;;;;;;;5059315;28;20226;-81
2022/06/04 05:55:47;;;;;;;11.18;10.07;;;;;;;;;;5058616;28;20236;-81
2022/06/04 05:58:14;;;;;;;8.35;7.55;;;;;;;;;;5058082;28;20241;-81
2022/06/04 06:00:54;;;;;;;9.00;8.20;;;;;;;;;;5057375;28;20230;-80
2022/06/04 06:03:21;;;;;;;9.40;8.50;;;;;;;;;;5052321;28;20221;-80
2022/06/04 06:05:48;;;;;;;9.35;8.43;;;;;;;;;;5053520;28;20241;-80
2022/06/04 06:08:15;;;;;;;8.00;7.30;;;;;;;;;;5052984;28;20587;-79
2022/06/04 06:10:43;;;;;;;9.10;8.25;;;;;;;;;;5054008;28;20237;-80
2022/06/04 06:13:12;;;;;;;8.25;7.32;;;;;;;;;;5054349;28;20275;-80
2022/06/04 06:15:40;;;;;;;6.97;6.38;;;;;;;;;;5053463;28;20244;-80
2022/06/04 06:18:07;;;;;;;7.65;6.63;;;;;;;;;;5053289;28;20209;-80
2022/06/04 06:20:35;;;;;;;6.60;5.97;;;;;;;;;;5053424;28;20246;-80
2022/06/04 06:23:02;;;;;;;6.63;6.13;;;;;;;;;;5053116;28;20238;-80
2022/06/04 06:25:29;;;;;;;6.28;5.78;;;;;;;;;;5053247;28;20713;-80
2022/06/04 06:27:57;;;;;;;8.02;6.38;;;;;;;;;;5055210;28;20577;-80
2022/06/04 06:30:25;;;;;;;6.60;5.72;;;;;;;;;;5053487;28;20245;-80
2022/06/04 06:32:52;;;;;;;7.03;5.63;;;;;;;;;;5052804;28;20237;-80
2022/06/04 06:35:19;;;;;;;6.22;5.50;;;;;;;;;;5053326;28;20709;-80
2022/06/04 06:37:47;;;;;;;6.63;5.90;;;;;;;;;;5056480;28;20696;-80
2022/06/04 06:40:14;;;;;;;5.97;5.38;;;;;;;;;;5056266;28;20244;-79
2022/06/04 06:42:41;;;;;;;6.72;4.95;;;;;;;;;;5057097;28;20229;-80
2022/06/04 06:45:09;;;;;;;6.93;5.30;;;;;;;;;;5057770;28;20237;-80
2022/06/04 06:47:39;;;;;;;5.25;4.70;;;;;;;;;;5057446;28;20666;-80
2022/06/04 06:50:07;;;;;;;5.43;4.93;;;;;;;;;;5057754;28;20258;-80
2022/06/04 06:52:34;;;;;;;5.57;5.07;;;;;;;;;;5057852;28;20272;-80
2022/06/04 06:55:01;;;;;;;5.32;4.93;;;;;;;;;;5055938;28;20545;-80
2022/06/04 06:57:28;;;;;;;5.60;5.10;;;;;;;;;;5056433;28;20206;-80
2022/06/04 06:59:56;;;;;;;5.65;5.15;;;;;;;;;;5057615;28;20237;-79
2022/06/04 07:02:23;;;;;;;6.35;5.75;;;;;;;;;;5057776;28;20828;-80
2022/06/04 07:04:52;;;;;;;5.57;5.13;;;;;;;;;;5057531;28;20697;-80
2022/06/04 07:07:19;;;;;;;4.72;4.32;;;;;;;;;;5059491;28;20214;-81
2022/06/04 07:09:46;;;;;;;4.97;4.25;;;;;;;;;;5058750;28;20221;-79
2022/06/04 07:12:13;;;;;;;4.40;4.00;;;;;;;;;;5059242;28;20234;-80
2022/06/04 07:14:41;;;;;;;4.60;4.20;;;;;;;;;;5057695;28;20224;-79
2022/06/04 07:17:08;;;;;;;4.63;4.22;;;;;;;;;;5059320;28;20695;-79
2022/06/04 07:19:35;;;;;;;4.80;4.35;;;;;;;;;;5058544;28;20317;-80
2022/06/04 07:22:04;;;;;;;4.25;3.92;;;;;;;;;;5058860;28;20264;-80
2022/06/04 07:24:31;;;;;;;4.00;3.67;;;;;;;;;;5057373;28;20584;-81
2022/06/04 07:26:58;;;;;;;4.32;3.75;;;;;;;;;;5057525;28;20209;-79
2022/06/04 07:29:27;;;;;;;4.30;4.00;;;;;;;;;;5058721;28;20198;-79
2022/06/04 07:31:54;;;;;;;4.40;4.00;;;;;;;;;;5058611;28;20254;-80
2022/06/04 07:34:21;;;;;;;6.07;4.70;;;;;;;;;;5058563;28;20221;-80
2022/06/04 07:36:48;;;;;;;4.97;4.47;;;;;;;;;;5059117;28;20234;-80
2022/06/04 07:39:18;;;;;;;6.38;4.35;;;;;;;;;;5060256;28;20210;-79
2022/06/04 07:41:46;;;;;;;4.90;4.43;;;;;;;;;;5059378;28;20608;-80
2022/06/04 07:44:14;;;;;;;9.05;5.35;;;;;;;;;;5038101;28;20203;-79
2022/06/04 07:46:41;;;;;;;6.05;5.57;;;;;;;;;;5038903;28;20241;-80
2022/06/04 07:49:09;;;;;;;5.88;5.38;;;;;;;;;;5038651;28;20282;-80
2022/06/04 07:51:37;;;;;;;5.82;5.30;;;;;;;;;;5036654;28;20258;-80
2022/06/04 07:54:04;;;;;;;5.97;5.47;;;;;;;;;;5037812;28;20210;-79
2022/06/04 07:56:33;;;;;;;5.78;5.18;;;;;;;;;;5037396;28;20230;-79
2022/06/04 07:59:00;;;;;;;5.40;4.90;;;;;;;;;;5035777;28;20211;-77
2022/06/04 08:01:28;;;;;;;6.03;4.15;;;;;;;;;;5037807;28;20221;-78
2022/06/04 08:03:55;;;;;;;5.53;5.03;;;;;;;;;;5055967;28;20202;-79
2022/06/04 08:06:23;;;;;;;5.82;5.07;;;;;;;;;;5056017;28;20341;-78
2022/06/04 08:08:54;;;;;;;4.93;4.45;;;;;;;;;;5055337;28;20210;-78
2022/06/04 08:11:35;;;;;;;5.68;5.10;;;;;;;;;;5034232;28;20309;-79
2022/06/04 08:14:07;;;;;;;5.25;4.82;;;;;;;;;;5037200;28;20210;-80
2022/06/04 08:16:34;;;;;;;6.03;5.00;;;;;;;;;;5038848;28;20230;-80
2022/06/04 08:19:02;;;;;;;4.97;4.63;;;;;;;;;;5040303;28;20325;-79
2022/06/04 08:21:29;;;;;;;5.60;5.03;;;;;;;;;;5036530;28;20280;-79
2022/06/04 08:23:56;;;;;;;5.70;5.30;;;;;;;;;;5038317;28;20199;-79
2022/06/04 08:26:23;;;;;;;5.70;5.20;;;;;;;;;;5048524;28;20476;-79
2022/06/04 08:28:50;;;;;;;5.82;5.32;;;;;;;;;;5047353;28;20198;-79
2022/06/04 08:31:19;;;;;;;5.57;5.05;;;;;;;;;;5046421;28;20238;-79
2022/06/04 08:33:46;;;;;;;5.55;5.00;;;;;;;;;;5044315;28;20207;-79
2022/06/04 08:36:15;;;;;;;5.40;4.90;;;;;;;;;;5047712;28;20245;-79
2022/06/04 08:38:43;;;;;;;5.43;4.90;;;;;;;;;;5041644;28;20327;-80
2022/06/04 08:41:20;;;;;;;6.00;5.40;;;;;;;;;;5036546;28;20245;-79
2022/06/04 08:43:49;;;;;;;5.30;4.80;;;;;;;;;;5036674;28;20210;-79
2022/06/04 08:46:18;;;;;;;7.28;5.43;;;;;;;;;;5036416;28;20238;-79
2022/06/04 08:48:47;;;;;;;6.75;6.05;;;;;;;;;;5036866;28;20686;-79
2022/06/04 08:51:19;;;;;;;5.70;5.20;;;;;;;;;;5036504;28;20238;-80
2022/06/04 08:53:47;;;;;;;5.20;4.75;;;;;;;;;;5036484;28;20230;-79
2022/06/04 08:59:06;;;;;;;7.60;5.43;;;;;;;;;;5039759;28;20202;-81
2022/06/04 09:01:35;;;;;;;5.63;5.13;;;;;;;;;;5041471;28;20572;-81
2022/06/04 09:04:10;;;;;;;5.00;4.60;;;;;;;;;;5036908;28;20217;-82
2022/06/04 09:06:39;;;;;;;5.20;4.78;;;;;;;;;;5035706;28;20316;-82
2022/06/04 09:09:11;;;;;;;5.53;5.05;;;;;;;;;;5034839;28;20245;-82
2022/06/04 09:11:42;;;;;;;7.30;5.45;;;;;;;;;;5036083;28;20582;-81
2022/06/04 09:14:21;;;;;;;6.07;5.43;;;;;;;;;;5035608;28;20191;-81
2022/06/04 09:16:51;;;;;;;5.10;4.70;;;;;;;;;;5035367;28;20234;-81
2022/06/04 09:19:20;;;;;;;5.22;4.72;;;;;;;;;;5037444;28;20210;-81
2022/06/04 09:21:49;;;;;;;5.45;4.90;;;;;;;;;;5043770;28;20238;-81
2022/06/04 09:24:16;;;;;;;4.85;4.45;;;;;;;;;;5048626;28;20206;-81
2022/06/04 09:26:43;;;;;;;5.45;4.95;;;;;;;;;;5039009;28;20230;-81
2022/06/04 09:29:22;;;;;;;7.18;5.55;;;;;;;;;;5036103;28;20217;-81
2022/06/04 09:31:55;;;;;;;4.80;4.40;;;;;;;;;;5034454;28;20242;-81
2022/06/04 09:34:25;;;;;;;5.78;4.60;;;;;;;;;;5035100;28;20281;-81
2022/06/04 09:36:53;;;;;;;4.65;4.35;;;;;;;;;;5035003;28;20237;-81
2022/06/04 09:39:21;;;;;;;5.35;4.95;;;;;;;;;;5034426;28;20245;-81
2022/06/04 09:41:51;;;;;;;4.57;4.18;;;;;;;;;;5034016;28;20296;-81
2022/06/04 09:44:19;;;;;;;4.45;4.07;;;;;;;;;;5035298;28;20206;-81
2022/06/04 09:46:48;;;;;;;5.50;4.28;;;;;;;;;;5036691;28;20275;-81
2022/06/04 09:49:21;;;;;;;6.18;5.60;;;;;;;;;;5035301;28;20211;-81
2022/06/04 09:51:51;;;;;;;5.05;4.32;;;;;;;;;;5034924;28;20238;-80
2022/06/04 09:54:21;;;;;;;4.13;3.83;;;;;;;;;;5035956;28;20207;-80
2022/06/04 09:56:52;;;;;;;4.90;4.47;;;;;;;;;;5035131;28;20241;-81
2022/06/04 09:59:21;;;;;;;4.05;3.45;;;;;;;;;;5036344;28;20214;-80
2022/06/04 10:01:58;;;;;;;3.88;3.53;;;;;;;;;;5042534;28;20233;-80
2022/06/04 10:04:36;;;;;;;3.90;3.58;;;;;;;;;;5056442;28;20724;-81
2022/06/04 10:07:07;;;;;;;3.72;3.42;;;;;;;;;;5056172;28;20229;-81
2022/06/04 10:13:42;;;;;;;2.63;2.42;;;;;;;;;;5059587;28;20237;-81
2022/06/04 10:15:15;;;;;;;2.78;2.58;;;;;;;;;;5058285;28;20252;-81
2022/06/04 10:17:42;;;;;;;3.90;2.53;;;;;;;;;;5058100;28;20201;-81
2022/06/04 10:20:19;;;;;;;3.47;3.28;;;;;;;;;;5056646;28;20233;-81
2022/06/04 10:22:52;;;;;;;5.97;3.00;;;;;;;;;;5075215;22;20236;-82
2022/06/04 10:25:20;;;;;;;3.35;3.15;;;;;;;;;;5051186;28;20244;-81
2022/06/04 10:27:52;;;;;;;3.45;3.22;;;;;;;;;;5059884;28;20210;-81
2022/06/04 10:30:22;;;;;;;3.63;2.97;;;;;;;;;;5060482;28;20260;-81
2022/06/04 10:32:55;;;;;;;3.92;3.10;;;;;;;;;;5060462;28;20252;-82
2022/06/04 10:35:27;;;;;;;4.90;3.20;;;;;;;;;;5059471;28;20238;-81
2022/06/04 10:38:03;;;;;;;3.63;3.33;;;;;;;;;;5060827;28;20212;-81
2022/06/04 10:40:40;;;;;;;3.80;3.38;;;;;;;;;;5059448;28;20315;-81
2022/06/04 10:43:13;;;;;;;3.72;3.17;;;;;;;;;;5060189;28;20275;-82
2022/06/04 10:45:42;;;;;;;3.40;3.20;;;;;;;;;;5060087;28;20234;-81
2022/06/04 10:48:12;;;;;;;3.60;3.30;;;;;;;;;;5059851;28;20206;-82
2022/06/04 10:53:40;;;;;;;3.13;2.83;;;;;;;;;;5060764;28;20264;-81
2022/06/04 10:56:10;;;;;;;3.08;2.80;;;;;;;;;;5059198;28;20233;-81
2022/06/04 10:58:41;;;;;;;2.90;2.60;;;;;;;;;;5060481;28;20212;-81
2022/06/04 11:01:11;;;;;;;3.13;2.53;;;;;;;;;;5058770;28;20256;-81
2022/06/04 11:03:40;;;;;;;4.55;2.60;;;;;;;;;;5040196;28;20230;-81
2022/06/04 11:06:10;;;;;;;4.75;3.03;;;;;;;;;;5040845;28;20239;-81
2022/06/04 11:08:42;;;;;;;2.65;2.45;;;;;;;;;;5040220;28;20214;-81
2022/06/04 11:11:13;;;;;;;2.60;2.40;;;;;;;;;;5040624;28;20246;-82
2022/06/04 11:13:42;;;;;;;3.00;2.53;;;;;;;;;;5040545;28;20233;-82
2022/06/04 11:16:12;;;;;;;3.05;2.65;;;;;;;;;;5040918;28;20234;-81
2022/06/04 11:18:42;;;;;;;2.40;2.30;;;;;;;;;;5041026;28;20202;-82
2022/06/04 11:21:12;;;;;;;3.97;2.45;;;;;;;;;;5040846;28;20242;-82
2022/06/04 11:23:44;;;;;;;2.70;2.50;;;;;;;;;;5040519;28;20241;-81
2022/06/04 11:26:18;;;;;;;3.25;2.60;;;;;;;;;;5041653;28;20239;-82
2022/06/04 11:28:45;;;;;;;5.05;2.58;;;;;;;;;;5042176;28;20210;-82
2022/06/04 11:31:15;;;;;;;2.88;2.60;;;;;;;;;;5040391;28;20257;-82
2022/06/04 11:33:51;;;;;;;3.30;3.00;;;;;;;;;;5040243;28;20609;-81
2022/06/04 11:36:23;;;;;;;2.70;2.50;;;;;;;;;;5041299;28;20230;-81
2022/06/04 11:39:05;;;;;;;2.58;2.40;;;;;;;;;;5042088;28;20206;-82
2022/06/04 11:41:36;;;;;;;4.55;2.60;;;;;;;;;;5036749;28;20242;-81
2022/06/04 11:44:13;;;;;;;2.90;2.70;;;;;;;;;;5041240;28;20599;-81
2022/06/04 11:46:45;;;;;;;4.70;2.90;;;;;;;;;;5040852;28;20246;-82
2022/06/04 11:49:19;;;;;;;3.20;2.90;;;;;;;;;;5040843;28;20187;-82
2022/06/04 11:51:54;;;;;;;2.72;2.53;;;;;;;;;;5041514;28;20234;-81
2022/06/04 11:54:28;;;;;;;3.83;2.75;;;;;;;;;;5041968;28;20214;-81
2022/06/04 11:57:01;;;;;;;3.42;2.80;;;;;;;;;;5040171;28;20226;-81
2022/06/04 11:59:36;;;;;;;2.90;2.70;;;;;;;;;;5040163;28;20221;-81
2022/06/04 12:02:11;;;;;;;3.63;2.50;;;;;;;;;;5042077;28;20211;-82
2022/06/04 12:04:42;;;;;;;2.80;2.60;;;;;;;;;;5040586;28;20199;-81
2022/06/04 12:07:12;;;;;;;2.72;2.55;;;;;;;;;;5041148;28;20207;-81
2022/06/04 12:09:42;;;;;;;2.50;2.30;;;;;;;;;;5040708;28;20206;-81
2022/06/04 12:12:12;;;;;;;2.63;2.42;;;;;;;;;;5040323;28;20298;-81
2022/06/04 12:14:42;;;;;;;4.95;2.30;;;;;;;;;;5039093;28;20230;-81
2022/06/04 12:17:11;;;;;;;2.30;2.10;;;;;;;;;;5042228;28;20217;-81
2022/06/04 12:25:13;;;;;;;2.47;2.28;;;;;;;;;;5041308;28;20233;-82
2022/06/04 12:27:56;;;;;;;4.00;2.40;;;;;;;;;;5041245;28;20206;-82
2022/06/04 12:30:46;;;;;;;2.05;1.95;;;;;;;;;;5040525;28;20242;-82
2022/06/04 12:33:19;;;;;;;3.28;2.25;;;;;;;;;;5041020;28;20235;-81
2022/06/04 12:35:54;;;;;;;5.18;1.80;;;;;;;;;;5040990;28;20242;-82
2022/06/04 12:38:23;;;;;;;2.15;2.03;;;;;;;;;;5041308;28;20213;-81
2022/06/04 12:40:51;;;;;;;4.40;2.20;;;;;;;;;;5040549;28;20245;-82
2022/06/04 12:43:26;;;;;;;2.17;2.08;;;;;;;;;;5040592;28;20253;-81
2022/06/04 12:45:54;;;;;;;2.03;1.92;;;;;;;;;;5040576;28;20245;-81
2022/06/04 12:48:24;;;;;;;2.22;2.13;;;;;;;;;;5040580;28;20211;-81
2022/06/04 12:50:58;;;;;;;2.33;2.13;;;;;;;;;;5056224;28;20287;-83
2022/06/04 12:53:26;;;;;;;3.88;2.10;;;;;;;;;;5057913;28;20222;-82
2022/06/04 12:55:55;;;;;;;2.05;1.95;;;;;;;;;;5055554;28;20230;-82
2022/06/04 12:58:28;;;;;;;2.20;2.00;;;;;;;;;;5053091;28;20206;-83
2022/06/04 13:00:56;;;;;;;4.57;2.08;;;;;;;;;;5052896;28;20242;-83
2022/06/04 13:03:35;;;;;;;2.92;2.10;;;;;;;;;;5047013;28;20234;-82
2022/06/04 13:06:04;;;;;;;2.20;2.10;;;;;;;;;;5046404;28;20234;-81
2022/06/04 13:08:36;;;;;;;2.22;2.03;;;;;;;;;;5049940;28;20233;-82
2022/06/04 13:11:07;;;;;;;3.50;2.22;;;;;;;;;;5050701;28;20234;-81
2022/06/04 13:13:49;;;;;;;3.28;2.20;;;;;;;;;;5052618;28;20222;-82
2022/06/04 13:16:18;;;;;;;4.03;2.30;;;;;;;;;;5052872;28;20296;-83
2022/06/04 13:18:49;;;;;;;3.38;2.47;;;;;;;;;;5050850;28;20207;-82
2022/06/04 13:21:17;;;;;;;4.30;3.90;;;;;;;;;;5048725;28;20589;-79
2022/06/04 13:23:46;;;;;;;2.30;2.10;;;;;;;;;;5041150;28;20233;-79
2022/06/04 13:26:21;;;;;;;2.38;2.17;;;;;;;;;;5046315;28;20234;-82
2022/06/04 13:28:50;;;;;;;3.53;2.40;;;;;;;;;;5045907;28;20226;-82
2022/06/04 13:31:18;;;;;;;2.85;2.50;;;;;;;;;;5046982;28;20235;-82
2022/06/04 13:33:45;;;;;;;2.30;2.20;;;;;;;;;;5035202;28;20231;-79
2022/06/04 13:36:13;;;;;;;2.80;2.50;;;;;;;;;;5035028;28;20849;-80
2022/06/04 13:38:42;;;;;;;2.30;2.20;;;;;;;;;;5036397;28;20207;-80
2022/06/04 13:41:10;;;;;;;2.50;2.30;;;;;;;;;;5036579;28;20242;-80
2022/06/04 13:43:43;;;;;;;2.53;2.30;;;;;;;;;;5038569;28;20238;-80
2022/06/04 13:46:17;;;;;;;2.70;2.50;;;;;;;;;;5040941;28;20233;-80
2022/06/04 13:48:51;;;;;;;3.42;2.50;;;;;;;;;;5043034;28;20193;-80
2022/06/04 13:51:19;;;;;;;3.95;2.55;;;;;;;;;;5041176;28;20229;-80
2022/06/04 13:53:53;;;;;;;2.97;2.33;;;;;;;;;;5043718;28;20237;-80
2022/06/04 13:56:22;;;;;;;2.35;2.20;;;;;;;;;;5043525;28;20234;-81
2022/06/04 13:58:49;;;;;;;2.22;2.03;;;;;;;;;;5046338;28;20217;-82
2022/06/04 14:01:22;;;;;;;4.03;2.60;;;;;;;;;;5047586;28;20237;-81
2022/06/04 14:03:50;;;;;;;2.58;2.30;;;;;;;;;;5046507;28;20231;-81
2022/06/04 14:06:20;;;;;;;2.80;2.13;;;;;;;;;;5045141;28;20245;-79
2022/06/04 14:08:48;;;;;;;4.32;2.20;;;;;;;;;;5037119;28;20198;-79
2022/06/04 14:11:22;;;;;;;4.00;2.40;;;;;;;;;;5038993;28;20246;-80
2022/06/04 14:14:01;;;;;;;2.15;2.00;;;;;;;;;;5038658;28;20333;-79
2022/06/04 14:16:37;;;;;;;3.10;2.30;;;;;;;;;;5061369;22;20240;-80
2022/06/04 14:19:14;;;;;;;2.60;2.05;;;;;;;;;;5052532;28;20198;-80
2022/06/04 14:21:45;;;;;;;2.28;2.17;;;;;;;;;;5058302;28;20241;-80
2022/06/04 14:24:19;;;;;;;3.05;2.85;;;;;;;;;;5037738;28;20183;-80
2022/06/04 14:26:50;;;;;;;2.75;2.45;;;;;;;;;;5037769;28;20313;-80
2022/06/04 14:29:23;;;;;;;4.03;2.63;;;;;;;;;;5042552;28;20214;-80
2022/06/04 14:31:55;;;;;;;5.70;3.25;;;;;;;;;;5042516;28;20648;-80
2022/06/04 14:34:22;;;;;;;3.78;3.20;;;;;;;;;;5044162;28;20215;-81
2022/06/04 14:36:50;;;;;;;3.45;3.15;;;;;;;;;;5044111;28;20231;-80
2022/06/04 14:39:19;;;;;;;3.10;2.88;;;;;;;;;;5044443;28;20547;-80
2022/06/04 14:41:51;;;;;;;3.05;2.60;;;;;;;;;;5043244;28;20245;-82
2022/06/04 14:44:29;;;;;;;3.00;2.80;;;;;;;;;;5043161;28;20207;-81
2022/06/04 14:47:14;;;;;;;4.78;2.45;;;;;;;;;;5043218;28;20618;-80
2022/06/04 14:49:58;;;;;;;4.40;2.78;;;;;;;;;;5044100;28;20210;-80
2022/06/04 14:52:35;;;;;;;4.35;2.70;;;;;;;;;;5044587;28;20230;-80
2022/06/04 14:55:06;;;;;;;4.93;2.92;;;;;;;;;;5043202;28;20252;-80
2022/06/04 14:57:44;;;;;;;7.22;3.03;;;;;;;;;;5043906;28;20203;-80
2022/06/04 15:00:20;;;;;;;7.15;3.05;;;;;;;;;;5045121;28;20234;-81
2022/06/04 15:02:54;;;;;;;6.07;3.03;;;;;;;;;;5031746;28;20254;-82
2022/06/04 15:05:25;;;;;;;4.15;2.80;;;;;;;;;;5026714;28;20235;-81
2022/06/04 15:08:01;;;;;;;3.22;2.92;;;;;;;;;;5025789;28;20199;-80
2022/06/04 15:10:32;;;;;;;5.28;2.80;;;;;;;;;;5024428;28;20237;-80
2022/06/04 15:13:04;;;;;;;2.65;2.45;;;;;;;;;;5023404;28;20234;-81
2022/06/04 15:15:41;;;;;;;2.88;2.67;;;;;;;;;;5025106;28;20246;-80
2022/06/04 15:18:27;;;;;;;2.83;2.20;;;;;;;;;;5025160;28;20195;-80
2022/06/04 15:21:00;;;;;;;3.45;2.60;;;;;;;;;;5025130;28;20263;-80
2022/06/04 15:23:34;;;;;;;4.00;2.22;;;;;;;;;;5025635;28;20711;-80